Time;durP1;ratioP1;P1;durP2;ratioP2;P2;SDS_P1;SDS_P2;PMS_P1;PMS_P2;Temp;Humidity;BMP_temperature;BMP_pressure;BME280_temperature;BME280_humidity;BME280_pressure;Samples;Min_cycle;Max_cycle;Signal;HPM_P1;HPM_P2
2022/01/12 00:01:58;;;;;;;;;;;4.40;99.90;;;;;;5013968;28;20066;-76
2022/01/12 00:04:24;;;;;;;66.45;18.02;;;4.40;99.90;;;;;;5004691;28;19928;-75
2022/01/12 00:09:26;;;;;;;68.88;19.83;;;4.50;99.90;;;;;;6148118;23;19956;-77
2022/01/12 00:11:51;;;;;;;54.38;20.23;;;4.30;99.90;;;;;;4984967;28;20063;-75
2022/01/12 00:14:17;;;;;;;;;;;4.50;99.90;;;;;;4975760;28;20047;-75
2022/01/12 00:16:58;;;;;;;47.42;17.77;;;4.50;99.90;;;;;;4981950;28;20358;-75
2022/01/12 00:19:28;;;;;;;53.13;17.67;;;4.50;99.90;;;;;;4958540;28;20115;-75
2022/01/12 00:21:57;;;;;;;59.85;19.00;;;4.50;99.90;;;;;;5064513;23;20043;-75
2022/01/12 00:24:40;;;;;;;63.67;19.40;;;4.50;99.90;;;;;;4951213;29;20059;-76
2022/01/12 00:35:29;;;;;;;50.65;18.70;;;4.50;99.90;;;;;;4945749;29;20051;-76
2022/01/12 00:37:54;;;;;;;;;;;4.50;99.90;;;;;;4954473;29;20127;-76
2022/01/12 00:40:20;;;;;;;51.50;19.52;;;4.50;99.90;;;;;;4954079;29;20301;-76
2022/01/12 00:42:45;;;;;;;;;;;4.50;99.90;;;;;;4970330;28;20095;-76
2022/01/12 00:45:11;;;;;;;51.60;17.83;;;4.50;99.90;;;;;;4953747;29;19945;-76
2022/01/12 00:47:37;;;;;;;;;;;4.50;99.90;;;;;;4946776;29;20071;-76
2022/01/12 00:50:04;;;;;;;47.80;18.42;;;4.50;99.90;;;;;;4934532;29;20077;-76
2022/01/12 00:52:29;;;;;;;49.22;18.83;;;4.50;99.90;;;;;;4934796;29;20086;-75
2022/01/12 00:54:55;;;;;;;;;;;4.50;99.90;;;;;;4935114;29;20507;-76
2022/01/12 00:57:20;;;;;;;41.90;17.05;;;4.60;99.90;;;;;;4936676;29;19930;-75
2022/01/12 00:59:46;;;;;;;;;;;4.60;99.90;;;;;;4934538;29;20051;-75
2022/01/12 01:02:13;;;;;;;42.15;16.80;;;4.60;99.90;;;;;;4934569;29;19965;-75
2022/01/12 01:04:39;;;;;;;41.42;16.92;;;4.60;99.90;;;;;;4935232;29;20040;-75
2022/01/12 01:07:04;;;;;;;;;;;4.60;99.90;;;;;;4935144;29;20480;-76
2022/01/12 01:09:32;;;;;;;38.28;16.55;;;4.60;99.90;;;;;;4934273;29;19957;-75
2022/01/12 01:11:57;;;;;;;34.20;16.05;;;4.60;99.90;;;;;;4934435;29;20051;-76
2022/01/12 01:14:37;;;;;;;;;;;4.60;99.90;;;;;;4933382;29;20139;-75
2022/01/12 01:25:31;;;;;;;33.95;12.43;;;4.70;99.90;;;;;;4952529;29;20075;-75
2022/01/12 01:28:01;;;;;;;25.50;9.70;;;4.80;99.90;;;;;;4956734;28;20118;-76
2022/01/12 01:30:27;;;;;;;24.27;9.43;;;4.90;99.90;;;;;;4972307;28;20065;-76
2022/01/12 01:32:54;;;;;;;21.58;8.75;;;4.90;99.90;;;;;;4971819;28;20051;-76
2022/01/12 01:35:19;;;;;;;21.02;7.90;;;4.90;99.90;;;;;;4971754;28;20078;-76
2022/01/12 01:37:45;;;;;;;;;;;4.90;99.90;;;;;;4974663;28;20054;-75
2022/01/12 01:40:13;;;;;;;15.77;5.22;;;5.00;99.90;;;;;;4971698;28;20545;-76
2022/01/12 01:42:56;;;;;;;11.55;5.22;;;5.00;99.90;;;;;;4972504;28;20089;-76
2022/01/12 01:53:48;;;;;;;11.50;4.03;;;4.80;99.90;;;;;;4975032;28;20168;-75
2022/01/12 01:56:14;;;;;;;9.60;3.88;;;4.60;99.90;;;;;;4975518;28;20058;-76
2022/01/12 01:58:40;;;;;;;;;;;4.50;99.90;;;;;;4975924;28;20056;-75
2022/01/12 02:01:06;;;;;;;9.60;3.05;;;4.40;99.90;;;;;;4992341;28;20008;-75
2022/01/12 02:03:32;;;;;;;;;;;4.30;99.90;;;;;;4976496;28;20089;-75
2022/01/12 02:06:01;;;;;;;8.48;3.00;;;4.20;99.90;;;;;;4975457;28;20432;-75
2022/01/12 02:08:30;;;;;;;9.52;3.30;;;4.10;99.90;;;;;;4974985;28;20085;-75
2022/01/12 02:10:57;;;;;;;7.80;3.30;;;4.10;99.90;;;;;;4994607;28;20038;-76
2022/01/12 02:13:23;;;;;;;8.05;3.20;;;4.00;99.90;;;;;;4978931;28;20054;-76
2022/01/12 02:15:50;;;;;;;8.38;4.00;;;3.90;99.90;;;;;;4978751;28;20042;-76
2022/01/12 02:35:36;;;;;;;10.50;3.42;;;3.20;99.90;;;;;;4979275;28;20090;-77
2022/01/12 02:40:54;;;;;;;5.47;2.15;;;3.10;99.90;;;;;;4955104;28;20121;-75
2022/01/12 02:55:43;;;;;;;5.93;2.35;;;2.90;99.90;;;;;;4956163;29;20047;-76
2022/01/12 02:58:09;;;;;;;;;;;2.80;99.90;;;;;;4955647;29;20053;-75
2022/01/12 03:00:56;;;;;;;5.03;2.20;;;2.80;99.90;;;;;;4956066;29;19923;-75
2022/01/12 03:03:24;;;;;;;5.55;2.50;;;2.80;99.90;;;;;;4951237;29;20066;-76
2022/01/12 03:06:42;;;;;;;5.43;2.28;;;2.70;99.90;;;;;;4969591;23;20056;-76
2022/01/12 03:09:20;;;;;;;5.47;2.00;;;3.60;99.90;;;;;;4936507;29;20052;-75
2022/01/12 03:11:46;;;;;;;8.82;2.20;;;2.60;99.90;;;;;;4936155;29;20055;-75
2022/01/12 03:14:27;;;;;;;;;;;2.50;99.90;;;;;;4936709;29;20054;-75
2022/01/12 03:16:52;;;;;;;5.32;2.00;;;3.30;99.90;;;;;;4920947;29;19923;-75
2022/01/12 03:19:18;;;;;;;;;;;2.50;99.90;;;;;;4917046;29;20100;-75
2022/01/12 03:21:43;;;;;;;8.73;1.80;;;2.50;99.90;;;;;;4919970;29;19953;-75
2022/01/12 03:24:09;;;;;;;;;;;2.40;99.90;;;;;;4920706;29;20092;-76
2022/01/12 03:26:35;;;;;;;2.50;1.27;;;2.40;99.90;;;;;;4920081;29;20367;-76
2022/01/12 03:29:02;;;;;;;5.05;1.60;;;2.40;99.90;;;;;;4920967;29;20048;-76
2022/01/12 03:31:31;;;;;;;12.25;2.10;;;2.30;99.90;;;;;;4920242;29;20400;-75
2022/01/12 03:34:10;;;;;;;6.50;1.92;;;2.40;99.90;;;;;;4920341;29;20575;-76
2022/01/12 03:39:08;;;;;;;3.30;1.40;;;2.50;99.90;;;;;;4919701;29;20047;-76
2022/01/12 03:41:35;;;;;;;4.70;1.67;;;2.50;99.90;;;;;;4920239;29;20048;-76
2022/01/12 03:44:06;;;;;;;7.80;2.25;;;2.50;99.90;;;;;;4919856;29;20047;-76
2022/01/12 03:46:37;;;;;;;4.63;1.73;;;2.40;99.90;;;;;;4936216;29;20412;-75
2022/01/12 03:49:04;;;;;;;6.00;1.80;;;2.30;99.90;;;;;;4976448;23;20053;-76
2022/01/12 03:51:30;;;;;;;10.35;2.50;;;2.20;99.90;;;;;;4977087;28;20517;-76
2022/01/12 03:53:56;;;;;;;;;;;2.30;99.90;;;;;;4977633;28;20074;-76
2022/01/12 03:56:22;;;;;;;2.70;1.33;;;2.00;99.90;;;;;;4977137;28;20365;-76
2022/01/12 03:58:47;;;;;;;;;;;2.30;99.90;;;;;;4977969;28;20057;-76
2022/01/12 04:01:13;;;;;;;3.95;1.30;;;2.20;99.90;;;;;;4976398;28;19921;-76
2022/01/12 04:03:43;;;;;;;;;;;2.20;99.90;;;;;;4977981;28;20050;-76
2022/01/12 04:08:53;;;;;;;5.78;1.30;;;2.10;99.90;;;;;;4976762;28;20177;-75
2022/01/12 04:11:18;;;;;;;;;;;2.00;99.90;;;;;;4977382;28;20137;-75
2022/01/12 04:13:50;;;;;;;5.15;1.42;;;1.90;99.90;;;;;;4979372;28;19922;-76
2022/01/12 04:16:16;;;;;;;10.40;2.80;;;1.90;99.90;;;;;;4992941;28;20495;-75
2022/01/12 04:18:48;;;;;;;4.25;1.42;;;1.90;99.90;;;;;;4993334;28;20398;-75
2022/01/12 04:21:14;;;;;;;3.83;2.20;;;1.90;99.90;;;;;;4992279;28;20490;-75
2022/01/12 04:23:40;;;;;;;;;;;1.90;99.90;;;;;;4993771;28;20057;-76
2022/01/12 04:26:12;;;;;;;6.38;1.67;;;1.90;99.90;;;;;;4994462;28;19921;-76
2022/01/12 04:28:40;;;;;;;4.13;1.25;;;1.90;99.90;;;;;;4990852;28;20049;-76
2022/01/12 04:31:07;;;;;;;3.67;1.70;;;1.90;99.90;;;;;;4991684;28;20128;-75
2022/01/12 04:33:34;;;;;;;5.50;1.50;;;1.90;99.90;;;;;;4992996;28;20069;-75
2022/01/12 04:36:00;;;;;;;3.75;1.58;;;1.80;99.90;;;;;;4992895;28;20121;-75
2022/01/12 04:38:28;;;;;;;;;;;1.80;99.90;;;;;;4977001;28;20133;-76
2022/01/12 04:40:55;;;;;;;4.22;1.63;;;1.70;99.90;;;;;;4976478;28;19926;-76
2022/01/12 04:43:22;;;;;;;8.05;1.40;;;1.60;99.90;;;;;;4975722;28;20050;-76
2022/01/12 04:48:33;;;;;;;3.75;1.40;;;1.50;99.90;;;;;;4976228;28;20055;-75
2022/01/12 04:50:59;;;;;;;6.47;1.40;;;1.50;99.90;;;;;;4993474;28;20402;-75
2022/01/12 04:53:25;;;;;;;;;;;1.40;99.90;;;;;;4994241;28;20057;-75
2022/01/12 04:55:52;;;;;;;20.42;2.67;;;1.40;99.90;;;;;;4976139;28;19922;-75
2022/01/12 04:58:18;;;;;;;11.00;1.58;;;1.50;99.90;;;;;;4991740;28;20569;-75
2022/01/12 05:00:57;;;;;;;18.95;3.50;;;1.50;99.90;;;;;;4992769;28;20050;-76
2022/01/12 05:06:42;;;;;;;87.30;11.98;;;1.50;99.90;;;;;;4973540;28;20043;-75
2022/01/12 05:09:16;;;;;;;122.43;19.73;;;1.60;99.90;;;;;;4973106;28;20490;-75
2022/01/12 05:14:27;;;;;;;140.32;18.58;;;1.70;99.90;;;;;;4991991;28;20054;-75
2022/01/12 05:16:53;;;;;;;89.13;10.15;;;1.70;99.90;;;;;;4992522;28;20394;-76
2022/01/12 05:19:19;;;;;;;10.65;2.70;;;1.80;99.90;;;;;;4991715;28;20478;-76
2022/01/12 05:21:44;;;;;;;;;;;1.80;99.90;;;;;;4989849;28;20096;-75
2022/01/12 05:24:10;;;;;;;67.93;6.50;;;1.90;99.90;;;;;;4991396;28;19921;-75
2022/01/12 05:26:36;;;;;;;;;;;1.90;99.90;;;;;;4992765;28;20445;-76
2022/01/12 05:29:02;;;;;;;14.30;3.05;;;1.90;99.90;;;;;;4991910;28;20283;-76
2022/01/12 05:31:28;;;;;;;12.38;2.88;;;1.90;99.90;;;;;;4992782;28;20054;-76
2022/01/12 05:33:53;;;;;;;;;;;1.90;99.90;;;;;;4992425;28;20046;-76
2022/01/12 05:36:19;;;;;;;13.48;3.78;;;1.80;99.90;;;;;;4987104;28;19921;-76
2022/01/12 05:38:45;;;;;;;;;;;2.40;99.90;;;;;;4984746;28;20034;-77
2022/01/12 05:41:11;;;;;;;12.93;3.75;;;1.70;99.90;;;;;;4983934;28;20060;-76
2022/01/12 05:43:37;;;;;;;;;;;1.70;99.90;;;;;;4985989;28;20474;-76
2022/01/12 05:46:11;;;;;;;14.80;3.10;;;1.70;99.90;;;;;;4980988;28;19921;-75
2022/01/12 05:51:30;;;;;;;39.58;5.80;;;1.70;99.90;;;;;;4982159;28;20054;-75
2022/01/12 05:53:55;;;;;;;;;;;1.60;99.90;;;;;;5001807;28;20043;-75
2022/01/12 05:56:21;;;;;;;13.35;3.05;;;1.60;99.90;;;;;;5002878;28;20374;-75
2022/01/12 05:58:50;;;;;;;;;;;1.60;99.90;;;;;;5001525;28;20069;-75
2022/01/12 06:01:17;;;;;;;15.30;3.00;;;1.60;99.90;;;;;;4983167;28;19993;-76
2022/01/12 06:03:42;;;;;;;13.13;2.60;;;1.50;99.90;;;;;;4982995;28;20612;-76
2022/01/12 06:06:08;;;;;;;;;;;1.50;99.90;;;;;;4997308;28;20061;-76
2022/01/12 06:08:33;;;;;;;9.45;2.47;;;1.50;99.90;;;;;;4983186;28;20289;-75
2022/01/12 06:10:59;;;;;;;;;;;1.50;99.90;;;;;;4975389;28;20039;-75
2022/01/12 06:13:25;;;;;;;8.20;1.33;;;1.50;99.90;;;;;;4991411;28;20360;-74
2022/01/12 06:15:50;;;;;;;;;;;1.50;99.90;;;;;;4993216;28;20046;-73
2022/01/12 06:18:19;;;;;;;8.63;1.55;;;1.40;99.90;;;;;;4991845;28;19925;-73
2022/01/12 06:20:44;;;;;;;33.58;3.72;;;1.40;99.90;;;;;;4978492;28;20453;-74
2022/01/12 06:23:10;;;;;;;;;;;1.40;99.90;;;;;;4992422;28;20042;-75
2022/01/12 06:25:41;;;;;;;8.95;2.28;;;1.40;99.90;;;;;;4974477;28;19922;-78
2022/01/12 06:31:10;;;;;;;6.20;1.77;;;1.40;99.90;;;;;;4975170;28;20058;-79
2022/01/12 06:33:48;;;;;;;3.13;1.25;;;1.30;99.90;;;;;;4961342;28;20050;-76
2022/01/12 06:36:19;;;;;;;6.72;1.55;;;1.30;99.90;;;;;;4990055;28;20499;-78
2022/01/12 06:38:46;;;;;;;8.10;1.58;;;1.30;99.90;;;;;;4973422;28;20046;-75
2022/01/12 06:41:12;;;;;;;18.45;4.13;;;1.30;99.90;;;;;;4991867;28;20049;-77
2022/01/12 06:43:39;;;;;;;7.53;1.92;;;1.30;99.90;;;;;;4992071;28;20042;-82
2022/01/12 06:46:05;;;;;;;2.20;1.10;;;1.20;99.90;;;;;;4975156;28;20046;-80
2022/01/12 06:48:34;;;;;;;3.88;1.40;;;1.10;99.90;;;;;;4974379;28;20054;-79
2022/01/12 06:51:00;;;;;;;5.63;1.60;;;1.10;99.90;;;;;;4974642;28;20050;-76
2022/01/12 06:53:28;;;;;;;;;;;1.00;99.90;;;;;;4975615;28;20054;-75
2022/01/12 06:55:54;;;;;;;2.83;1.67;;;1.00;99.90;;;;;;4992222;28;19957;-87
2022/01/12 06:58:19;;;;;;;;;;;0.90;99.90;;;;;;4993817;28;20058;-80
2022/01/12 07:00:45;;;;;;;3.78;1.60;;;0.80;99.90;;;;;;4996089;28;20366;-80
2022/01/12 07:03:11;;;;;;;3.58;1.30;;;0.70;99.90;;;;;;4993974;28;20050;-79
2022/01/12 07:05:37;;;;;;;;;;;0.60;99.90;;;;;;5000798;28;20042;-78
2022/01/12 07:08:03;;;;;;;5.65;1.25;;;0.50;99.90;;;;;;4978180;28;20020;-78
2022/01/12 07:10:28;;;;;;;;;;;0.50;99.90;;;;;;4995186;28;20057;-77
2022/01/12 07:13:10;;;;;;;7.30;2.35;;;0.40;99.90;;;;;;5198925;23;19922;-80
2022/01/12 07:15:40;;;;;;;2.65;1.35;;;-0.40;99.90;;;;;;4955320;29;20581;-80
2022/01/12 07:18:05;;;;;;;6.03;1.70;;;0.40;99.90;;;;;;4957553;28;20051;-93
2022/01/12 07:20:34;;;;;;;;;;;0.30;99.90;;;;;;4971054;28;20509;-81
2022/01/12 07:23:00;;;;;;;7.63;1.85;;;0.20;99.90;;;;;;4970156;28;20369;-89
2022/01/12 07:25:29;;;;;;;;;;;0.20;99.90;;;;;;4959186;28;20046;-81
2022/01/12 07:27:55;;;;;;;4.15;1.48;;;0.20;99.90;;;;;;4977822;28;19928;-85
2022/01/12 07:30:24;;;;;;;;;;;0.20;99.90;;;;;;4978316;28;20042;-84
2022/01/12 07:32:51;;;;;;;8.85;2.03;;;0.30;99.90;;;;;;4974593;28;19921;-82
2022/01/12 07:35:17;;;;;;;8.55;2.00;;;0.30;99.90;;;;;;4976517;28;20522;-83
2022/01/12 07:37:43;;;;;;;3.45;1.50;;;0.30;99.90;;;;;;4971626;28;20043;-82
2022/01/12 07:40:11;;;;;;;;;;;0.20;99.90;;;;;;4975015;28;20054;-82
2022/01/12 07:42:37;;;;;;;6.00;1.60;;;1.00;99.90;;;;;;4957062;28;19945;-81
2022/01/12 07:45:06;;;;;;;;;;;0.10;99.90;;;;;;4957329;28;20802;-76
2022/01/12 07:47:32;;;;;;;5.65;1.90;;;0.10;99.90;;;;;;4956872;28;20022;-78
2022/01/12 07:49:59;;;;;;;5.50;1.83;;;0.10;99.90;;;;;;4975236;28;20047;-80
2022/01/12 07:52:26;;;;;;;6.95;2.10;;;0.10;99.90;;;;;;4957080;28;20057;-77
2022/01/12 07:54:52;;;;;;;4.80;2.53;;;0.10;99.90;;;;;;4957876;28;20126;-77
2022/01/12 07:57:18;;;;;;;;;;;0.20;99.90;;;;;;4964953;28;20043;-77
2022/01/12 07:59:44;;;;;;;7.60;2.97;;;0.20;99.90;;;;;;4973983;28;19929;-77
2022/01/12 08:02:11;;;;;;;6.18;3.55;;;0.20;99.90;;;;;;4975156;28;20043;-78
2022/01/12 08:04:37;;;;;;;7.75;5.07;;;0.30;99.90;;;;;;4973863;28;20050;-76
2022/01/12 08:07:04;;;;;;;8.63;5.25;;;0.30;99.90;;;;;;4975552;28;20047;-85
2022/01/12 08:09:30;;;;;;;4.50;2.75;;;0.30;99.90;;;;;;4958136;28;20081;-82
2022/01/12 08:11:56;;;;;;;5.70;2.40;;;0.40;99.90;;;;;;4975371;28;20137;-83
2022/01/12 08:19:45;;;;;;;8.13;2.30;;;0.50;99.90;;;;;;4985312;28;20125;-79
2022/01/12 08:22:11;;;;;;;;;;;0.60;99.90;;;;;;4976776;28;20117;-76
2022/01/12 08:24:36;;;;;;;11.15;2.20;;;0.60;99.90;;;;;;4993201;28;20358;-76
2022/01/12 08:27:02;;;;;;;;;;;0.70;99.90;;;;;;4976969;28;20048;-80
2022/01/12 08:29:29;;;;;;;7.00;2.00;;;0.70;99.90;;;;;;4984077;28;19922;-73
2022/01/12 08:31:55;;;;;;;4.93;1.85;;;0.70;99.90;;;;;;4981527;28;20054;-75
2022/01/12 08:34:20;;;;;;;;;;;0.70;99.90;;;;;;4978811;28;20042;-79
2022/01/12 08:36:46;;;;;;;11.25;2.22;;;0.80;99.90;;;;;;5001906;28;20402;-79
2022/01/12 09:08:06;;;;;;;4.22;2.13;;;3.80;99.90;;;;;;5454356;23;20049;-80
2022/01/12 10:21:49;;;;;;;14.25;3.67;;;12.80;99.90;;;;;;5835788;23;20070;-79
2022/01/12 10:25:06;;;;;;;10.13;3.58;;;13.20;99.90;;;;;;4975122;28;20065;-79
2022/01/12 10:27:47;;;;;;;8.27;2.65;;;13.80;99.90;;;;;;4989260;28;20425;-79
2022/01/12 10:30:22;;;;;;;9.35;2.50;;;14.90;99.90;;;;;;4986331;28;20042;-80
2022/01/12 10:32:59;;;;;;;10.32;2.42;;;15.30;99.90;;;;;;4992834;28;20046;-79
2022/01/12 10:35:27;;;;;;;6.97;2.22;;;15.80;99.90;;;;;;4993086;28;20046;-76
2022/01/12 10:37:53;;;;;;;8.23;2.58;;;16.20;99.90;;;;;;4975433;28;20047;-77
2022/01/12 10:40:18;;;;;;;7.03;2.33;;;16.90;99.90;;;;;;4959328;28;20043;-77
2022/01/12 10:42:45;;;;;;;9.43;2.72;;;17.10;99.90;;;;;;4959171;28;20043;-77
2022/01/12 10:45:11;;;;;;;6.65;2.20;;;17.20;99.90;;;;;;4959353;28;20051;-78
2022/01/12 10:47:37;;;;;;;7.75;2.60;;;17.40;99.90;;;;;;4973744;28;20093;-75
2022/01/12 10:50:08;;;;;;;6.68;2.40;;;17.60;99.90;;;;;;4982345;28;20042;-78
2022/01/12 10:52:35;;;;;;;7.85;2.58;;;18.30;99.20;;;;;;4995196;28;20064;-78
2022/01/12 10:55:11;;;;;;;7.90;2.17;;;18.10;99.30;;;;;;4994512;28;20397;-78
2022/01/12 10:57:39;;;;;;;9.57;2.58;;;18.20;98.60;;;;;;4973134;28;20039;-75
2022/01/12 11:00:18;;;;;;;6.78;2.50;;;18.20;98.60;;;;;;4976234;28;20503;-79
2022/01/12 11:02:55;;;;;;;6.47;2.45;;;18.40;99.00;;;;;;4990780;28;20042;-80
2022/01/12 11:05:25;;;;;;;7.25;3.03;;;18.50;98.20;;;;;;4980255;28;20049;-76
2022/01/12 11:07:52;;;;;;;9.43;2.55;;;18.60;98.20;;;;;;4981229;28;20074;-77
2022/01/12 11:10:20;;;;;;;7.70;2.78;;;18.20;98.00;;;;;;4994372;28;20121;-77
2022/01/12 11:12:47;;;;;;;8.43;2.70;;;18.20;96.50;;;;;;4994367;28;20042;-79
2022/01/12 11:15:16;;;;;;;9.90;3.30;;;18.60;99.20;;;;;;4995467;28;20056;-76
2022/01/12 11:17:45;;;;;;;7.10;2.90;;;18.40;98.60;;;;;;4994006;28;20042;-77
2022/01/12 11:20:30;;;;;;;7.40;2.75;;;18.20;99.20;;;;;;4976711;28;20077;-78
2022/01/12 11:23:09;;;;;;;11.60;3.17;;;19.20;97.70;;;;;;4977306;28;20050;-79
2022/01/12 11:25:34;;;;;;;11.40;3.30;;;18.90;96.70;;;;;;4978427;28;20052;-79
2022/01/12 11:28:27;;;;;;;12.07;4.00;;;19.60;98.10;;;;;;4978431;28;20046;-82
2022/01/12 11:30:55;;;;;;;12.07;4.63;;;18.90;95.80;;;;;;4973782;28;20144;-78
2022/01/12 11:33:37;;;;;;;14.55;7.68;;;19.50;97.80;;;;;;4977308;28;20442;-77
2022/01/12 11:36:25;;;;;;;14.73;5.75;;;19.50;97.40;;;;;;4977704;28;20098;-77
2022/01/12 11:39:10;;;;;;;13.02;3.75;;;19.00;96.40;;;;;;4977121;28;20046;-79
2022/01/12 11:41:42;;;;;;;12.48;3.90;;;18.50;96.60;;;;;;4977398;28;20082;-79
2022/01/12 11:44:12;;;;;;;59.70;53.80;;;19.20;97.30;;;;;;4982515;28;20081;-79
2022/01/12 11:46:50;;;;;;;13.10;7.22;;;19.50;97.40;;;;;;4993906;28;20454;-80
2022/01/12 11:49:52;;;;;;;11.52;5.55;;;19.70;97.30;;;;;;4982784;28;20057;-80
2022/01/12 11:52:22;;;;;;;10.50;4.00;;;19.60;97.70;;;;;;4991608;28;20050;-79
2022/01/12 11:54:53;;;;;;;11.70;4.45;;;19.80;97.40;;;;;;4993572;28;20050;-82
2022/01/12 11:57:30;;;;;;;14.30;5.63;;;19.60;98.30;;;;;;4989195;28;20121;-79
2022/01/12 12:00:00;;;;;;;12.32;4.25;;;19.10;96.30;;;;;;4976597;28;20498;-77
2022/01/12 12:02:37;;;;;;;12.50;4.05;;;19.30;96.60;;;;;;4976771;28;20506;-77
2022/01/12 12:05:25;;;;;;;11.50;3.15;;;19.30;97.50;;;;;;4993138;28;20054;-76
2022/01/12 12:07:58;;;;;;;13.23;3.97;;;19.70;95.70;;;;;;4994001;28;20057;-77
2022/01/12 12:10:26;;;;;;;9.30;3.58;;;20.00;96.50;;;;;;4993079;28;20076;-76
2022/01/12 12:12:53;;;;;;;9.93;3.53;;;20.00;94.80;;;;;;4957321;28;20047;-76
2022/01/12 12:15:19;;;;;;;9.68;3.08;;;19.40;96.40;;;;;;4965991;28;20047;-77
2022/01/12 12:17:45;;;;;;;10.88;2.88;;;19.50;97.00;;;;;;4977993;28;20069;-78
2022/01/12 12:20:14;;;;;;;11.10;3.53;;;19.20;96.10;;;;;;4976197;28;20498;-77
2022/01/12 12:22:47;;;;;;;11.52;3.88;;;18.80;95.30;;;;;;4975969;28;20062;-77
2022/01/12 12:25:19;;;;;;;12.70;3.53;;;19.20;97.50;;;;;;4975950;28;20501;-77
2022/01/12 12:27:50;;;;;;;9.10;3.13;;;19.50;95.30;;;;;;4971766;28;20552;-76
2022/01/12 12:30:18;;;;;;;13.18;4.07;;;19.90;93.90;;;;;;4956274;28;20130;-77
2022/01/12 12:32:47;;;;;;;10.77;3.05;;;19.50;95.70;;;;;;4956603;28;20442;-77
2022/01/12 12:35:18;;;;;;;11.52;3.28;;;18.60;95.70;;;;;;4962696;28;20126;-77
2022/01/12 12:37:52;;;;;;;9.63;3.28;;;19.10;96.10;;;;;;4976433;28;20046;-77
2022/01/12 12:40:22;;;;;;;12.02;3.17;;;19.20;94.60;;;;;;4975631;28;20046;-77
2022/01/12 12:42:59;;;;;;;10.55;2.95;;;18.60;97.00;;;;;;4976035;28;20093;-77
2022/01/12 12:45:37;;;;;;;9.00;3.22;;;19.30;97.30;;;;;;4976164;28;20070;-77
2022/01/12 12:48:04;;;;;;;14.35;4.95;;;18.90;96.60;;;;;;4976416;28;20131;-76
2022/01/12 12:50:32;;;;;;;11.57;3.10;;;19.20;96.10;;;;;;4976151;28;20042;-76
2022/01/12 12:52:58;;;;;;;7.78;2.60;;;18.80;94.90;;;;;;4993954;28;20106;-76
2022/01/12 12:55:24;;;;;;;10.57;3.38;;;18.50;96.30;;;;;;4974877;28;20077;-76
2022/01/12 12:57:52;;;;;;;12.93;3.35;;;18.40;96.00;;;;;;4993744;28;20435;-76
2022/01/12 13:00:21;;;;;;;11.02;3.40;;;18.50;97.40;;;;;;4980058;28;20394;-76
2022/01/12 13:02:50;;;;;;;11.77;3.53;;;18.70;96.50;;;;;;4992316;28;20425;-77
2022/01/12 13:05:24;;;;;;;8.48;3.22;;;18.00;97.50;;;;;;4992114;28;20080;-77
2022/01/12 13:07:54;;;;;;;13.48;4.10;;;17.60;96.40;;;;;;4988458;28;20106;-77
2022/01/12 13:10:23;;;;;;;12.75;3.80;;;17.40;98.40;;;;;;4973472;28;20046;-77
2022/01/12 13:12:54;;;;;;;8.35;3.25;;;17.20;97.90;;;;;;4957296;28;20095;-77
2022/01/12 13:15:38;;;;;;;10.68;3.00;;;17.40;99.20;;;;;;4956092;28;20043;-77
2022/01/12 13:18:14;;;;;;;7.07;3.00;;;17.60;98.30;;;;;;4974463;28;20468;-76
2022/01/12 13:23:41;;;;;;;8.30;2.42;;;17.20;98.40;;;;;;4973507;28;20387;-79
2022/01/12 13:26:14;;;;;;;10.48;2.83;;;17.30;98.30;;;;;;4993567;28;20113;-79
2022/01/12 13:28:43;;;;;;;6.88;2.15;;;16.90;98.30;;;;;;4993667;28;20050;-79
2022/01/12 13:31:18;;;;;;;12.20;3.53;;;16.40;99.30;;;;;;4974914;28;20507;-75
2022/01/12 13:33:50;;;;;;;9.00;2.47;;;16.10;99.80;;;;;;4993142;28;20539;-76
2022/01/12 13:36:17;;;;;;;9.48;3.17;;;16.90;99.90;;;;;;4975321;28;20096;-75
2022/01/12 13:38:47;;;;;;;11.50;4.45;;;15.60;99.90;;;;;;4975036;28;20105;-73
2022/01/12 13:41:16;;;;;;;11.75;4.18;;;15.20;99.90;;;;;;4975569;28;20387;-80
2022/01/12 13:43:45;;;;;;;17.83;6.00;;;14.50;99.90;;;;;;4971927;28;20049;-77
2022/01/12 13:46:15;;;;;;;14.48;5.18;;;14.00;99.90;;;;;;4956571;28;20051;-75
2022/01/12 13:49:05;;;;;;;10.05;4.53;;;13.20;99.90;;;;;;4973658;28;20094;-75
2022/01/12 13:51:40;;;;;;;15.65;6.57;;;13.00;99.90;;;;;;4956159;28;20404;-75
2022/01/12 13:54:11;;;;;;;10.40;4.32;;;12.00;99.90;;;;;;4986911;28;20038;-74
2022/01/12 13:56:41;;;;;;;6.97;2.60;;;11.60;99.90;;;;;;4993454;28;20045;-75
2022/01/12 13:59:07;;;;;;;11.23;3.80;;;11.20;99.90;;;;;;4974903;28;20042;-74
2022/01/12 14:01:35;;;;;;;9.63;3.03;;;10.80;99.90;;;;;;4971358;28;20042;-76
2022/01/12 14:04:17;;;;;;;15.23;3.42;;;10.70;99.90;;;;;;4991554;28;20486;-76
2022/01/12 14:06:47;;;;;;;13.93;3.20;;;10.40;99.90;;;;;;5005251;28;20085;-76
2022/01/12 14:09:35;;;;;;;13.55;3.65;;;10.60;99.90;;;;;;4977791;28;20121;-76
2022/01/12 14:12:15;;;;;;;13.32;2.97;;;9.90;99.90;;;;;;4975695;28;20083;-76
2022/01/12 14:14:58;;;;;;;12.55;3.40;;;9.70;99.90;;;;;;4975258;28;20094;-76
2022/01/12 14:17:31;;;;;;;9.65;2.80;;;9.60;99.90;;;;;;4972016;28;20062;-75
2022/01/12 14:20:05;;;;;;;9.40;3.53;;;9.50;99.90;;;;;;4977387;28;20058;-76
2022/01/12 14:23:04;;;;;;;9.13;3.38;;;9.30;99.90;;;;;;4995200;28;20054;-77
2022/01/12 14:25:47;;;;;;;11.48;2.53;;;9.20;99.90;;;;;;4978154;28;20069;-76
2022/01/12 14:28:26;;;;;;;10.77;2.50;;;9.10;99.90;;;;;;4977987;28;20145;-76
2022/01/12 14:30:51;;;;;;;7.10;2.63;;;8.90;99.90;;;;;;4974887;28;20047;-76
2022/01/12 14:33:17;;;;;;;;;;;8.80;99.90;;;;;;4988038;28;20509;-79
2022/01/12 14:35:42;;;;;;;11.68;2.63;;;8.70;99.90;;;;;;4974952;28;20355;-74
2022/01/12 14:38:08;;;;;;;;;;;8.70;99.90;;;;;;4978404;28;20121;-78
2022/01/12 14:40:34;;;;;;;11.35;3.42;;;8.60;99.90;;;;;;4986895;28;20354;-78
2022/01/12 14:43:02;;;;;;;11.95;4.60;;;8.50;99.90;;;;;;4967948;28;20076;-79
2022/01/12 14:45:31;;;;;;;17.42;4.43;;;8.40;99.90;;;;;;4974472;28;20047;-77
2022/01/12 14:48:00;;;;;;;9.45;3.25;;;8.40;99.90;;;;;;4992729;28;20038;-77
2022/01/12 14:50:28;;;;;;;10.07;2.72;;;8.30;99.90;;;;;;4981186;28;20464;-82
2022/01/12 14:52:54;;;;;;;7.50;2.78;;;8.20;99.90;;;;;;4997845;28;20050;-76
2022/01/12 14:55:21;;;;;;;8.55;2.58;;;8.10;99.90;;;;;;4995667;28;20084;-80
2022/01/12 14:57:47;;;;;;;8.80;3.13;;;8.00;99.90;;;;;;4986444;28;20051;-77
2022/01/12 15:00:18;;;;;;;;;;;7.90;99.90;;;;;;4990321;28;20066;-76
2022/01/12 15:02:44;;;;;;;11.15;4.05;;;7.80;99.90;;;;;;4985933;28;19932;-78
2022/01/12 15:05:11;;;;;;;13.43;4.60;;;7.70;99.90;;;;;;4983151;28;20513;-76
2022/01/12 15:07:36;;;;;;;11.20;3.38;;;7.60;99.90;;;;;;4988780;28;20045;-78
2022/01/12 15:10:02;;;;;;;;;;;7.50;99.90;;;;;;4978616;28;20078;-77
2022/01/12 15:12:36;;;;;;;11.30;3.35;;;7.40;99.90;;;;;;4976683;28;19972;-77
2022/01/12 15:15:07;;;;;;;12.23;5.97;;;7.30;99.90;;;;;;4984277;28;20391;-75
2022/01/12 15:17:35;;;;;;;15.93;5.97;;;7.20;99.90;;;;;;4974311;28;20133;-77
2022/01/12 15:20:03;;;;;;;17.08;4.70;;;7.10;99.90;;;;;;4973115;28;20493;-76
2022/01/12 15:22:29;;;;;;;10.50;4.30;;;7.10;99.90;;;;;;4974569;28;20060;-79
2022/01/12 15:24:55;;;;;;;;;;;7.10;99.90;;;;;;4994141;28;20042;-75
2022/01/12 15:27:20;;;;;;;16.60;5.57;;;6.90;99.90;;;;;;4968374;28;19926;-77
2022/01/12 15:29:46;;;;;;;;;;;6.80;99.90;;;;;;4973469;28;20042;-77
2022/01/12 15:32:11;;;;;;;15.85;5.70;;;6.80;99.90;;;;;;4997511;28;20651;-78
2022/01/12 15:34:37;;;;;;;;;;;6.70;99.90;;;;;;4976864;28;20049;-77
2022/01/12 15:37:04;;;;;;;9.93;3.25;;;6.60;99.90;;;;;;4973249;28;19984;-78
2022/01/12 15:39:30;;;;;;;12.93;4.05;;;6.50;99.90;;;;;;4968038;28;20080;-78
2022/01/12 15:41:56;;;;;;;11.50;4.60;;;6.50;99.90;;;;;;4973793;28;20053;-80
2022/01/12 15:44:22;;;;;;;13.07;4.55;;;6.40;99.90;;;;;;4980461;28;20053;-80
2022/01/12 15:46:49;;;;;;;;;;;6.30;99.90;;;;;;4977453;28;20415;-81
2022/01/12 15:49:15;;;;;;;9.93;3.72;;;6.30;99.90;;;;;;5008516;28;19995;-78
2022/01/12 15:51:41;;;;;;;8.48;3.20;;;6.20;99.90;;;;;;4977266;28;20048;-76
2022/01/12 15:54:06;;;;;;;;;;;6.10;99.90;;;;;;4977053;28;20043;-78
2022/01/12 15:56:32;;;;;;;11.40;2.70;;;6.00;99.90;;;;;;4988017;28;20348;-80
2022/01/12 15:58:58;;;;;;;;;;;5.90;99.90;;;;;;4964316;28;20406;-76
2022/01/12 16:01:23;;;;;;;7.90;2.17;;;5.80;99.90;;;;;;4974922;28;20349;-79
2022/01/12 16:03:52;;;;;;;;;;;5.70;99.90;;;;;;4994129;28;20446;-76
2022/01/12 16:06:20;;;;;;;9.35;2.20;;;5.70;99.90;;;;;;4975295;28;19966;-80
2022/01/12 16:08:46;;;;;;;11.48;2.08;;;6.60;99.90;;;;;;4975827;28;20065;-83
2022/01/12 16:11:12;;;;;;;;;;;5.40;99.90;;;;;;4972724;28;20472;-78
2022/01/12 16:13:38;;;;;;;10.80;2.10;;;5.30;99.90;;;;;;4995821;28;19925;-83
2022/01/12 16:16:06;;;;;;;13.02;2.75;;;5.20;99.90;;;;;;4993128;28;20046;-78
2022/01/12 16:18:50;;;;;;;12.30;3.20;;;4.90;99.90;;;;;;4981923;28;20041;-79
2022/01/12 16:21:16;;;;;;;;;;;4.80;99.90;;;;;;4975877;28;20038;-79
2022/01/12 16:23:43;;;;;;;11.23;3.35;;;4.80;99.90;;;;;;4993753;28;20293;-78
2022/01/12 16:26:09;;;;;;;13.65;3.53;;;4.80;99.90;;;;;;4973074;28;20119;-81